createdAt,value
2022-12-25T00:00:26.390Z,77.84
2022-12-25T00:01:26.224Z,77.73
2022-12-25T00:02:26.501Z,77.62
2022-12-25T00:03:26.325Z,77.61
2022-12-25T00:04:26.323Z,77.88
2022-12-25T00:05:26.163Z,77.99
2022-12-25T00:06:26.268Z,77.90
2022-12-25T00:07:26.144Z,78.02
2022-12-25T00:08:26.175Z,78.01
2022-12-25T00:09:26.113Z,78.41
2022-12-25T00:10:26.225Z,78.81
2022-12-25T00:11:26.095Z,79.29
2022-12-25T00:12:26.167Z,79.56
2022-12-25T00:13:26.058Z,79.77
2022-12-25T00:14:26.158Z,79.94
2022-12-25T00:15:26.034Z,80.18
2022-12-25T00:16:26.215Z,80.41
2022-12-25T00:17:25.999Z,80.68
2022-12-25T00:18:26.179Z,80.82
2022-12-25T00:19:25.983Z,81.12
2022-12-25T00:20:28.203Z,81.42
2022-12-25T00:21:25.959Z,81.68
2022-12-25T00:22:26.033Z,81.75
2022-12-25T00:23:25.923Z,81.91
2022-12-25T00:24:26.997Z,81.76
2022-12-25T00:25:25.910Z,81.77
2022-12-25T00:26:26.074Z,81.82
2022-12-25T00:27:25.882Z,81.97
2022-12-25T00:28:26.043Z,82.31
2022-12-25T00:29:25.856Z,82.39
2022-12-25T00:30:27.973Z,82.44
2022-12-25T00:31:25.884Z,82.50
2022-12-25T00:32:25.968Z,82.49
2022-12-25T00:33:25.792Z,82.53
2022-12-25T00:34:25.954Z,82.50
2022-12-25T00:35:25.771Z,82.51
2022-12-25T00:36:26.917Z,82.48
2022-12-25T00:37:25.750Z,82.59
2022-12-25T00:38:25.873Z,82.68
2022-12-25T00:39:25.711Z,82.80
2022-12-25T00:40:25.743Z,82.94
2022-12-25T00:41:25.695Z,83.07
2022-12-25T00:42:25.787Z,83.25
2022-12-25T00:43:25.661Z,83.26
2022-12-25T00:44:25.781Z,83.32
2022-12-25T00:45:25.674Z,83.35
2022-12-25T00:46:25.829Z,83.49
2022-12-25T00:47:25.661Z,83.60
2022-12-25T00:48:25.800Z,83.68
2022-12-25T00:49:25.591Z,83.73
2022-12-25T00:50:25.682Z,83.61
2022-12-25T00:51:25.555Z,83.74
2022-12-25T00:52:25.670Z,83.81
2022-12-25T00:53:25.523Z,83.34
2022-12-25T00:54:25.607Z,83.50
2022-12-25T00:55:25.505Z,83.71
2022-12-25T00:56:25.690Z,83.76
2022-12-25T00:57:25.469Z,83.89
2022-12-25T00:58:25.566Z,83.97
2022-12-25T00:59:25.441Z,84.00
2022-12-25T01:00:25.507Z,83.98
2022-12-25T01:01:25.489Z,84.17
2022-12-25T01:02:25.921Z,84.22
2022-12-25T01:03:25.449Z,84.33
2022-12-25T01:04:27.571Z,84.29
2022-12-25T01:05:25.377Z,84.54
2022-12-25T01:06:25.514Z,84.54
2022-12-25T01:07:25.362Z,84.51
2022-12-25T01:08:25.401Z,84.73
2022-12-25T01:09:25.321Z,84.89
2022-12-25T01:10:46.357Z,84.92
2022-12-25T01:11:25.300Z,84.74
2022-12-25T01:12:25.426Z,84.69
2022-12-25T01:13:25.261Z,84.66
2022-12-25T01:14:25.408Z,84.36
2022-12-25T01:15:25.239Z,84.44
2022-12-25T01:16:25.406Z,84.66
2022-12-25T01:17:25.199Z,84.73
2022-12-25T01:18:25.318Z,84.68
2022-12-25T01:19:25.182Z,84.71
2022-12-25T01:20:25.309Z,84.87
2022-12-25T01:21:25.151Z,84.80
2022-12-25T01:22:27.295Z,84.95
2022-12-25T01:23:25.130Z,85.11
2022-12-25T01:24:25.233Z,85.19
2022-12-25T01:25:25.100Z,85.19
2022-12-25T01:26:28.412Z,85.26
2022-12-25T01:27:25.071Z,85.21
2022-12-25T01:28:25.198Z,85.14
2022-12-25T01:29:25.040Z,85.00
2022-12-25T01:30:26.158Z,84.88
2022-12-25T01:31:25.097Z,84.96
2022-12-25T01:32:25.117Z,85.21
2022-12-25T01:33:24.995Z,85.19
2022-12-25T01:34:25.107Z,85.29
2022-12-25T01:35:24.966Z,85.27
2022-12-25T01:36:25.044Z,85.29
2022-12-25T01:37:24.947Z,84.95
2022-12-25T01:38:25.018Z,84.78
2022-12-25T01:39:24.910Z,84.73
2022-12-25T01:40:25.005Z,84.83
2022-12-25T01:41:24.876Z,85.08
2022-12-25T01:42:25.049Z,85.22
2022-12-25T01:43:24.859Z,85.46
2022-12-25T01:44:24.968Z,85.52
2022-12-25T01:45:24.866Z,85.18
2022-12-25T01:46:25.014Z,84.95
2022-12-25T01:47:24.798Z,84.82
2022-12-25T01:48:24.952Z,84.72
2022-12-25T01:49:24.800Z,84.67
2022-12-25T01:50:24.944Z,84.64
2022-12-25T01:51:24.753Z,84.61
2022-12-25T01:52:24.919Z,84.51
2022-12-25T01:53:24.727Z,84.38
2022-12-25T01:54:25.778Z,84.39
2022-12-25T01:55:24.700Z,84.52
2022-12-25T01:56:24.851Z,84.62
2022-12-25T01:57:24.673Z,84.74
2022-12-25T01:58:24.847Z,85.03
2022-12-25T01:59:24.642Z,84.87
2022-12-25T02:00:24.774Z,85.14
2022-12-25T02:01:24.752Z,85.18
2022-12-25T02:02:24.885Z,85.22
2022-12-25T02:03:24.660Z,85.43
2022-12-25T02:04:24.628Z,85.60
2022-12-25T02:05:24.632Z,85.63
2022-12-25T02:06:24.666Z,85.63
2022-12-25T02:07:24.545Z,85.62
2022-12-25T02:08:24.663Z,85.69
2022-12-25T02:09:24.506Z,85.72
2022-12-25T02:10:24.642Z,85.79
2022-12-25T02:11:24.477Z,85.93
2022-12-25T02:12:24.567Z,85.97
2022-12-25T02:13:24.455Z,86.07
2022-12-25T02:14:24.561Z,86.16
2022-12-25T02:15:24.439Z,86.26
2022-12-25T02:16:57.864Z,86.26
2022-12-25T02:17:25.426Z,86.15
2022-12-25T02:18:24.578Z,86.11
2022-12-25T02:19:24.378Z,86.20
2022-12-25T02:20:24.628Z,86.28
2022-12-25T02:21:24.353Z,86.24
2022-12-25T02:22:24.448Z,86.06
2022-12-25T02:23:24.325Z,86.00
2022-12-25T02:24:24.386Z,85.98
2022-12-25T02:25:24.295Z,85.97
2022-12-25T02:26:24.476Z,86.06
2022-12-25T02:27:24.267Z,86.03
2022-12-25T02:28:24.463Z,85.89
2022-12-25T02:29:24.237Z,85.87
2022-12-25T02:30:24.288Z,85.85
2022-12-25T02:31:24.264Z,85.87
2022-12-25T02:32:24.288Z,85.76
2022-12-25T02:33:24.193Z,85.78
2022-12-25T02:34:24.264Z,85.65
2022-12-25T02:35:24.156Z,85.64
2022-12-25T02:36:45.275Z,85.72
2022-12-25T02:37:24.162Z,85.73
2022-12-25T02:38:24.284Z,85.84
2022-12-25T02:39:24.106Z,85.79
2022-12-25T02:40:24.178Z,85.66
2022-12-25T02:41:24.075Z,85.87
2022-12-25T02:42:24.197Z,85.91
2022-12-25T02:43:24.070Z,85.85
2022-12-25T02:44:24.185Z,85.79
2022-12-25T02:45:24.170Z,85.76
2022-12-25T02:46:24.228Z,85.84
2022-12-25T02:47:23.996Z,86.00
2022-12-25T02:48:24.109Z,86.06
2022-12-25T02:49:23.989Z,85.96
2022-12-25T02:50:24.100Z,85.82
2022-12-25T02:51:23.955Z,85.75
2022-12-25T02:52:24.077Z,85.85
2022-12-25T02:53:23.917Z,86.13
2022-12-25T02:54:25.036Z,86.15
2022-12-25T02:55:23.899Z,86.30
2022-12-25T02:56:24.104Z,86.26
2022-12-25T02:57:23.894Z,86.23
2022-12-25T02:58:23.985Z,86.41
2022-12-25T02:59:23.846Z,86.64
2022-12-25T03:00:24.947Z,86.69
2022-12-25T03:01:24.035Z,86.59
2022-12-25T03:02:23.978Z,86.57
2022-12-25T03:03:23.820Z,86.47
2022-12-25T03:04:23.895Z,86.45
2022-12-25T03:05:23.754Z,86.49
2022-12-25T03:06:24.951Z,86.51
2022-12-25T03:07:23.736Z,86.56
2022-12-25T03:08:23.812Z,86.61
2022-12-25T03:09:23.705Z,86.55
2022-12-25T03:10:23.800Z,86.57
2022-12-25T03:11:23.674Z,86.58
2022-12-25T03:12:24.767Z,86.57
2022-12-25T03:13:23.666Z,86.61
2022-12-25T03:14:23.843Z,86.52
2022-12-25T03:15:23.624Z,86.49
2022-12-25T03:16:23.765Z,86.46
2022-12-25T03:17:23.604Z,86.43
2022-12-25T03:18:23.634Z,86.36
2022-12-25T03:19:23.585Z,86.31
2022-12-25T03:20:24.751Z,86.34
2022-12-25T03:21:23.553Z,86.34
2022-12-25T03:22:23.707Z,86.38
2022-12-25T03:23:23.517Z,86.46
2022-12-25T03:24:25.746Z,86.54
2022-12-25T03:25:23.493Z,86.58
2022-12-25T03:26:23.543Z,86.59
2022-12-25T03:27:23.469Z,86.69
2022-12-25T03:28:24.543Z,86.68
2022-12-25T03:29:28.521Z,86.66
2022-12-25T03:30:24.463Z,86.70
2022-12-25T03:31:23.610Z,86.75
2022-12-25T03:32:23.434Z,86.80
2022-12-25T03:33:44.724Z,86.84
2022-12-25T03:34:24.379Z,86.78
2022-12-25T03:36:32.755Z,86.67
2022-12-25T03:37:32.678Z,86.68
2022-12-25T03:38:32.759Z,86.92
2022-12-25T03:39:32.635Z,87.09
2022-12-25T03:40:32.677Z,87.14
2022-12-25T03:41:32.694Z,87.06
2022-12-25T03:42:32.697Z,87.03
2022-12-25T03:43:32.603Z,87.17
2022-12-25T03:44:33.637Z,87.07
2022-12-25T03:45:32.549Z,86.96
2022-12-25T03:46:32.670Z,86.93
2022-12-25T03:47:32.526Z,87.01
2022-12-25T03:48:32.690Z,87.06
2022-12-25T03:49:32.540Z,87.17
2022-12-25T03:50:32.610Z,87.23
2022-12-25T03:51:32.476Z,87.26
2022-12-25T03:52:33.567Z,87.20
2022-12-25T03:53:32.465Z,87.17
2022-12-25T03:54:32.487Z,87.21
2022-12-25T03:55:32.442Z,87.25
2022-12-25T03:56:33.542Z,87.06
2022-12-25T03:57:32.387Z,86.91
2022-12-25T03:58:32.457Z,86.75
2022-12-25T03:59:32.369Z,86.69
2022-12-25T04:00:32.487Z,86.69
2022-12-25T04:01:32.497Z,86.70
2022-12-25T04:02:32.695Z,86.68
2022-12-25T04:03:32.361Z,86.66
2022-12-25T04:04:32.361Z,86.59
2022-12-25T04:05:32.285Z,86.62
2022-12-25T04:06:32.395Z,86.67
2022-12-25T04:07:32.279Z,86.65
2022-12-25T04:08:32.331Z,86.67
2022-12-25T04:09:32.236Z,86.74
2022-12-25T04:10:32.375Z,86.85
2022-12-25T04:11:32.256Z,87.02
2022-12-25T04:12:32.301Z,87.00
2022-12-25T04:13:32.198Z,87.05
2022-12-25T04:14:32.237Z,87.02
2022-12-25T04:15:32.168Z,86.99
2022-12-25T04:16:32.274Z,86.96
2022-12-25T04:17:32.135Z,86.97
2022-12-25T04:18:32.221Z,87.00
2022-12-25T04:19:32.125Z,87.00
2022-12-25T04:20:32.247Z,87.05
2022-12-25T04:21:32.079Z,87.02
2022-12-25T04:22:32.167Z,86.91
2022-12-25T04:23:32.055Z,86.93
2022-12-25T04:24:33.137Z,86.98
2022-12-25T04:25:32.054Z,86.98
2022-12-25T04:26:33.173Z,86.98
2022-12-25T04:27:31.997Z,87.08
2022-12-25T04:28:32.006Z,87.15
2022-12-25T04:29:31.976Z,87.16
2022-12-25T04:30:32.126Z,87.08
2022-12-25T04:31:32.031Z,87.05
2022-12-25T04:32:32.054Z,87.09
2022-12-25T04:33:31.918Z,87.14
2022-12-25T04:34:31.995Z,87.15
2022-12-25T04:35:31.886Z,87.17
2022-12-25T04:36:34.019Z,87.19
2022-12-25T04:37:31.896Z,87.03
2022-12-25T04:38:31.963Z,86.89
2022-12-25T04:39:31.836Z,86.95
2022-12-25T04:40:31.887Z,87.02
2022-12-25T04:41:31.805Z,87.08
2022-12-25T04:42:32.853Z,87.06
2022-12-25T04:43:31.796Z,87.14
2022-12-25T04:44:31.879Z,87.24
2022-12-25T04:45:31.775Z,87.32
2022-12-25T04:46:31.841Z,87.38
2022-12-25T04:47:31.725Z,87.46
2022-12-25T04:48:31.835Z,87.44
2022-12-25T04:49:31.731Z,87.45
2022-12-25T04:50:31.766Z,87.34
2022-12-25T04:51:31.678Z,87.21
2022-12-25T04:52:31.805Z,87.17
2022-12-25T04:53:31.644Z,87.14
2022-12-25T04:54:31.745Z,87.10
2022-12-25T04:55:31.652Z,87.33
2022-12-25T04:56:31.793Z,87.44
2022-12-25T04:57:31.598Z,87.49
2022-12-25T04:58:31.727Z,87.51
2022-12-25T04:59:31.573Z,87.46
2022-12-25T05:00:31.643Z,87.48
2022-12-25T05:01:31.708Z,87.48
2022-12-25T05:02:31.815Z,87.49
2022-12-25T05:03:31.554Z,87.46
2022-12-25T05:04:33.715Z,87.38
2022-12-25T05:05:31.493Z,87.35
2022-12-25T05:06:31.654Z,87.39
2022-12-25T05:07:31.476Z,87.41
2022-12-25T05:08:31.482Z,87.34
2022-12-25T05:09:31.437Z,87.33
2022-12-25T05:10:31.522Z,87.33
2022-12-25T05:11:31.403Z,87.35
2022-12-25T05:12:31.507Z,87.35
2022-12-25T05:13:31.403Z,87.41
2022-12-25T05:14:31.497Z,87.38
2022-12-25T05:15:31.356Z,87.43
2022-12-25T05:16:31.589Z,87.46
2022-12-25T05:17:31.331Z,87.43
2022-12-25T05:18:31.363Z,87.52
2022-12-25T05:19:31.327Z,87.71
2022-12-25T05:20:36.366Z,87.79
2022-12-25T05:21:32.272Z,87.86
2022-12-25T05:22:32.360Z,87.96
2022-12-25T05:23:31.258Z,87.99
2022-12-25T05:24:31.374Z,87.92
2022-12-25T05:25:31.271Z,87.96
2022-12-25T05:26:31.310Z,88.03
2022-12-25T05:27:31.214Z,88.03
2022-12-25T05:28:31.237Z,87.95
2022-12-25T05:29:31.188Z,87.93
2022-12-25T05:30:31.294Z,87.95
2022-12-25T05:31:31.195Z,87.93
2022-12-25T05:32:31.323Z,87.93
2022-12-25T05:33:31.132Z,87.96
2022-12-25T05:34:31.245Z,87.85
2022-12-25T05:35:31.082Z,87.82
2022-12-25T05:36:31.181Z,87.93
2022-12-25T05:37:31.121Z,88.04
2022-12-25T05:38:52.078Z,88.11
2022-12-25T05:39:31.049Z,88.19
2022-12-25T05:40:31.166Z,88.22
2022-12-25T05:41:34.551Z,88.19
2022-12-25T05:42:30.991Z,88.15
2022-12-25T05:43:32.146Z,88.06
2022-12-25T05:44:30.981Z,87.92
2022-12-25T05:45:31.093Z,87.90
2022-12-25T05:46:31.020Z,87.96
2022-12-25T05:47:31.130Z,88.01
2022-12-25T05:48:30.919Z,87.93
2022-12-25T05:49:34.295Z,87.89
2022-12-25T05:50:30.889Z,87.88
2022-12-25T05:51:30.997Z,88.00
2022-12-25T05:52:30.892Z,88.01
2022-12-25T05:53:30.940Z,87.94
2022-12-25T05:54:30.833Z,87.92
2022-12-25T05:55:31.018Z,87.91
2022-12-25T05:56:30.821Z,87.91
2022-12-25T05:57:31.828Z,87.92
2022-12-25T05:58:30.794Z,87.91
2022-12-25T05:59:30.840Z,87.87
2022-12-25T06:00:30.757Z,87.87
2022-12-25T06:01:31.017Z,87.87
2022-12-25T06:02:30.969Z,87.78
2022-12-25T06:03:30.947Z,87.83
2022-12-25T06:04:30.706Z,88.00
2022-12-25T06:05:30.838Z,88.07
2022-12-25T06:06:30.679Z,88.14
2022-12-25T06:07:31.860Z,88.16
2022-12-25T06:08:30.651Z,88.27
2022-12-25T06:09:30.709Z,88.28
2022-12-25T06:10:30.624Z,88.36
2022-12-25T06:11:30.748Z,88.30
2022-12-25T06:12:30.601Z,88.21
2022-12-25T06:13:30.669Z,88.10
2022-12-25T06:14:30.572Z,88.11
2022-12-25T06:15:30.719Z,88.08
2022-12-25T06:16:37.293Z,88.11
2022-12-25T06:17:31.529Z,88.23
2022-12-25T06:18:32.714Z,88.31
2022-12-25T06:19:30.518Z,88.40
2022-12-25T06:20:30.659Z,88.40
2022-12-25T06:21:30.468Z,88.35
2022-12-25T06:22:30.590Z,88.36
2022-12-25T06:23:30.479Z,88.28
2022-12-25T06:24:51.558Z,88.14
2022-12-25T06:25:30.417Z,88.04
2022-12-25T06:26:30.558Z,87.99
2022-12-25T06:27:30.400Z,88.04
2022-12-25T06:28:30.411Z,88.12
2022-12-25T06:29:30.368Z,88.15
2022-12-25T06:30:30.597Z,88.04
2022-12-25T06:31:30.407Z,87.93
2022-12-25T06:32:30.473Z,87.96
2022-12-25T06:33:30.318Z,87.96
2022-12-25T06:34:30.398Z,87.94
2022-12-25T06:35:30.291Z,87.87
2022-12-25T06:36:31.397Z,87.88
2022-12-25T06:37:30.270Z,87.97
2022-12-25T06:38:30.381Z,88.00
2022-12-25T06:39:30.236Z,87.95
2022-12-25T06:40:30.307Z,87.93
2022-12-25T06:41:30.221Z,87.98
2022-12-25T06:42:30.293Z,88.06
2022-12-25T06:43:30.176Z,88.06
2022-12-25T06:44:30.282Z,88.01
2022-12-25T06:45:30.272Z,87.92
2022-12-25T06:46:30.315Z,87.96
2022-12-25T06:47:30.140Z,88.14
2022-12-25T06:48:33.476Z,88.29
2022-12-25T06:49:30.110Z,88.27
2022-12-25T06:50:30.185Z,88.27
2022-12-25T06:51:30.078Z,88.23
2022-12-25T06:52:32.224Z,88.22
2022-12-25T06:53:33.620Z,88.18
2022-12-25T06:54:31.055Z,88.04
2022-12-25T06:55:30.150Z,88.00
2022-12-25T06:56:30.006Z,88.09
2022-12-25T06:57:30.181Z,88.01
2022-12-25T06:58:29.990Z,88.01
2022-12-25T06:59:31.127Z,88.06
2022-12-25T07:00:30.091Z,88.11
2022-12-25T07:01:30.249Z,88.22
2022-12-25T07:02:30.030Z,88.25
2022-12-25T07:03:29.994Z,88.35
2022-12-25T07:04:29.897Z,88.37
2022-12-25T07:05:29.995Z,88.41
2022-12-25T07:06:29.906Z,88.52
2022-12-25T07:07:30.032Z,88.54
2022-12-25T07:08:29.852Z,88.52
2022-12-25T07:09:29.971Z,88.49
2022-12-25T07:10:29.826Z,88.43
2022-12-25T07:11:30.012Z,88.32
2022-12-25T07:12:29.820Z,88.26
2022-12-25T07:13:29.833Z,88.14
2022-12-25T07:14:29.774Z,88.11
2022-12-25T07:15:29.872Z,88.09
2022-12-25T07:16:29.822Z,88.11
2022-12-25T07:17:29.930Z,88.03
2022-12-25T07:18:29.733Z,87.96
2022-12-25T07:19:29.847Z,87.90
2022-12-25T07:20:29.738Z,87.90
2022-12-25T07:21:29.884Z,87.86
2022-12-25T07:22:29.659Z,87.75
2022-12-25T07:23:50.753Z,87.74
2022-12-25T07:24:29.633Z,87.73
2022-12-25T07:25:35.213Z,87.77
2022-12-25T07:26:30.613Z,87.83
2022-12-25T07:27:29.685Z,87.85
2022-12-25T07:28:29.591Z,88.03
2022-12-25T07:29:32.945Z,88.03
2022-12-25T07:30:29.675Z,87.81
2022-12-25T07:31:29.680Z,87.71
2022-12-25T07:32:29.533Z,87.68
2022-12-25T07:33:29.590Z,87.71
2022-12-25T07:34:29.502Z,87.74
2022-12-25T07:35:32.801Z,87.81
2022-12-25T07:36:29.471Z,87.89
2022-12-25T07:37:29.551Z,87.83
2022-12-25T07:38:29.447Z,87.68
2022-12-25T07:39:29.603Z,87.78
2022-12-25T07:40:29.431Z,87.79
2022-12-25T07:41:29.486Z,87.65
2022-12-25T07:42:29.393Z,87.45
2022-12-25T07:43:29.462Z,87.30
2022-12-25T07:44:29.371Z,87.06
2022-12-25T07:45:29.573Z,86.93
2022-12-25T07:46:29.378Z,86.98
2022-12-25T07:47:29.500Z,87.04
2022-12-25T07:48:29.327Z,87.08
2022-12-25T07:49:29.380Z,87.10
2022-12-25T07:50:29.296Z,87.20
2022-12-25T07:51:29.401Z,87.19
2022-12-25T07:52:29.275Z,87.00
2022-12-25T07:53:29.395Z,86.95
2022-12-25T07:54:29.231Z,87.05
2022-12-25T07:55:29.381Z,87.11
2022-12-25T07:56:29.225Z,87.11
2022-12-25T07:57:29.313Z,87.06
2022-12-25T07:58:29.195Z,86.96
2022-12-25T07:59:30.320Z,86.84
2022-12-25T08:00:29.160Z,86.70
2022-12-25T08:01:30.587Z,86.75
2022-12-25T08:02:29.603Z,86.77
2022-12-25T08:03:29.532Z,86.70
2022-12-25T08:04:29.133Z,86.64
2022-12-25T08:05:29.308Z,86.56
2022-12-25T08:06:29.079Z,86.68
2022-12-25T08:07:29.188Z,86.54
2022-12-25T08:08:29.060Z,86.51
2022-12-25T08:09:30.145Z,86.74
2022-12-25T08:10:29.026Z,86.64
2022-12-25T08:11:29.121Z,86.57
2022-12-25T08:12:28.999Z,86.62
2022-12-25T08:13:29.091Z,86.73
2022-12-25T08:14:28.969Z,86.77
2022-12-25T08:15:29.128Z,86.75
2022-12-25T08:16:28.993Z,86.81
2022-12-25T08:17:29.016Z,86.87
2022-12-25T08:18:30.064Z,86.85
2022-12-25T08:19:28.999Z,87.08
2022-12-25T08:20:28.888Z,87.16
2022-12-25T08:21:29.034Z,87.33
2022-12-25T08:22:28.857Z,87.29
2022-12-25T08:23:29.029Z,87.22
2022-12-25T08:24:28.835Z,87.11
2022-12-25T08:25:29.012Z,87.21
2022-12-25T08:26:28.816Z,87.26
2022-12-25T08:27:30.954Z,87.16
2022-12-25T08:28:28.788Z,86.92
2022-12-25T08:29:28.925Z,87.06
2022-12-25T08:30:28.817Z,87.21
2022-12-25T08:31:28.907Z,87.07
2022-12-25T08:32:28.728Z,86.92
2022-12-25T08:33:29.867Z,86.82
2022-12-25T08:34:28.698Z,86.94
2022-12-25T08:35:28.828Z,87.12
2022-12-25T08:36:28.687Z,87.04
2022-12-25T08:37:28.718Z,87.27
2022-12-25T08:38:28.650Z,87.41
2022-12-25T08:39:30.843Z,87.30
2022-12-25T08:40:28.626Z,87.31
2022-12-25T08:41:28.740Z,87.17
2022-12-25T08:42:28.595Z,87.10
2022-12-25T08:43:28.729Z,87.21
2022-12-25T08:44:28.617Z,87.14
2022-12-25T08:45:34.687Z,87.11
2022-12-25T08:46:29.651Z,87.14
2022-12-25T08:47:28.607Z,87.26
2022-12-25T08:48:28.520Z,87.31
2022-12-25T08:49:28.628Z,87.47
2022-12-25T08:50:28.521Z,87.40
2022-12-25T08:51:29.584Z,87.37
2022-12-25T08:52:28.489Z,87.42
2022-12-25T08:53:28.603Z,87.48
2022-12-25T08:54:28.439Z,87.61
2022-12-25T08:55:29.557Z,87.72
2022-12-25T08:56:28.414Z,87.98
2022-12-25T08:57:28.466Z,88.01
2022-12-25T08:58:28.417Z,88.08
2022-12-25T08:59:28.509Z,88.04
2022-12-25T09:00:28.353Z,88.23
2022-12-25T09:01:28.652Z,88.22
2022-12-25T09:02:28.627Z,88.12
2022-12-25T09:03:28.482Z,88.00
2022-12-25T09:04:28.325Z,88.04
2022-12-25T09:05:28.500Z,87.90
2022-12-25T09:06:28.289Z,87.68
2022-12-25T09:07:28.345Z,87.40
2022-12-25T09:08:28.247Z,87.29
2022-12-25T09:09:28.401Z,87.31
2022-12-25T09:10:28.244Z,87.25
2022-12-25T09:11:28.420Z,87.09
2022-12-25T09:12:28.197Z,86.97
2022-12-25T09:13:28.234Z,86.81
2022-12-25T09:14:28.174Z,86.80
2022-12-25T09:15:28.345Z,86.84
2022-12-25T09:16:28.252Z,86.86
2022-12-25T09:17:28.218Z,87.02
2022-12-25T09:18:28.117Z,86.86
2022-12-25T09:19:30.344Z,86.87
2022-12-25T09:20:28.085Z,86.89
2022-12-25T09:21:28.294Z,87.08
2022-12-25T09:22:28.083Z,87.12
2022-12-25T09:23:28.124Z,86.84
2022-12-25T09:24:28.035Z,86.73
2022-12-25T09:25:28.154Z,86.73
2022-12-25T09:26:28.024Z,86.73
2022-12-25T09:27:28.093Z,86.72
2022-12-25T09:28:28.001Z,86.71
2022-12-25T09:29:28.135Z,86.72
2022-12-25T09:30:27.965Z,86.64
2022-12-25T09:31:28.181Z,86.59
2022-12-25T09:32:27.937Z,86.61
2022-12-25T09:33:28.003Z,86.58
2022-12-25T09:34:27.924Z,86.31
2022-12-25T09:35:28.043Z,86.09
2022-12-25T09:36:27.879Z,86.19
2022-12-25T09:37:27.980Z,86.21
2022-12-25T09:38:27.849Z,85.79
2022-12-25T09:39:28.023Z,85.79
2022-12-25T09:40:27.843Z,85.81
2022-12-25T09:41:27.949Z,85.38
2022-12-25T09:42:27.794Z,85.16
2022-12-25T09:43:27.874Z,84.86
2022-12-25T09:44:27.773Z,84.62
2022-12-25T09:45:27.857Z,84.97
2022-12-25T09:46:33.187Z,84.28
2022-12-25T09:47:28.730Z,84.02
2022-12-25T09:48:27.771Z,83.85
2022-12-25T09:49:27.718Z,83.91
2022-12-25T09:50:27.782Z,83.71
2022-12-25T09:51:27.682Z,83.46
2022-12-25T09:52:27.745Z,83.17
2022-12-25T09:53:27.655Z,83.38
2022-12-25T09:54:27.709Z,83.48
2022-12-25T09:55:27.621Z,82.97
2022-12-25T09:56:27.767Z,82.52
2022-12-25T09:57:27.592Z,82.22
2022-12-25T09:58:29.694Z,82.11
2022-12-25T09:59:27.562Z,81.31
2022-12-25T10:00:27.732Z,80.99
2022-12-25T10:01:27.710Z,81.46
2022-12-25T10:02:27.780Z,80.96
2022-12-25T10:03:27.549Z,80.64
2022-12-25T10:04:27.662Z,80.49
2022-12-25T10:05:27.492Z,80.08
2022-12-25T10:06:27.642Z,80.29
2022-12-25T10:07:27.461Z,79.91
2022-12-25T10:08:27.579Z,79.83
2022-12-25T10:09:27.436Z,80.27
2022-12-25T10:10:27.556Z,79.68
2022-12-25T10:11:27.435Z,79.42
2022-12-25T10:12:27.501Z,79.27
2022-12-25T10:13:27.384Z,79.57
2022-12-25T10:14:27.480Z,78.96
2022-12-25T10:15:27.355Z,78.89
2022-12-25T10:16:27.500Z,79.41
2022-12-25T10:17:27.342Z,79.40
2022-12-25T10:18:27.445Z,79.70
2022-12-25T10:19:27.306Z,79.43
2022-12-25T10:20:27.486Z,78.93
2022-12-25T10:21:27.272Z,79.18
2022-12-25T10:22:27.367Z,79.13
2022-12-25T10:23:27.249Z,78.73
2022-12-25T10:24:27.350Z,79.04
2022-12-25T10:25:27.511Z,79.28
2022-12-25T10:26:48.363Z,79.24
2022-12-25T10:27:27.192Z,79.47
2022-12-25T10:28:27.373Z,79.42
2022-12-25T10:29:27.172Z,79.46
2022-12-25T10:30:27.358Z,79.38
2022-12-25T10:31:27.215Z,79.74
2022-12-25T10:32:27.189Z,79.54
2022-12-25T10:33:27.117Z,79.09
2022-12-25T10:34:27.228Z,78.51
2022-12-25T10:35:27.083Z,78.41
2022-12-25T10:36:27.173Z,78.54
2022-12-25T10:37:27.065Z,78.55
2022-12-25T10:38:28.236Z,78.27
2022-12-25T10:39:27.036Z,78.26
2022-12-25T10:40:27.069Z,77.99
2022-12-25T10:41:27.016Z,77.72
2022-12-25T10:42:27.061Z,77.62
2022-12-25T10:43:26.994Z,77.31
2022-12-25T10:44:28.127Z,77.64
2022-12-25T10:45:26.942Z,77.36
2022-12-25T10:46:27.058Z,76.80
2022-12-25T10:47:26.931Z,76.83
2022-12-25T10:48:27.076Z,76.99
2022-12-25T10:49:26.900Z,77.62
2022-12-25T10:50:27.930Z,77.32
2022-12-25T10:51:26.885Z,77.01
2022-12-25T10:52:27.007Z,76.44
2022-12-25T10:53:26.870Z,76.17
2022-12-25T10:54:26.985Z,75.91
2022-12-25T10:55:29.575Z,76.18
2022-12-25T10:56:26.912Z,76.17
2022-12-25T10:57:26.790Z,76.06
2022-12-25T10:58:27.919Z,75.20
2022-12-25T10:59:26.770Z,75.07
2022-12-25T11:00:26.880Z,75.24
2022-12-25T11:01:26.837Z,74.29
2022-12-25T11:02:26.988Z,73.49
2022-12-25T11:03:26.842Z,73.47
2022-12-25T11:04:26.918Z,73.14
2022-12-25T11:05:26.754Z,72.78
2022-12-25T11:06:26.789Z,72.27
2022-12-25T11:07:26.659Z,72.15
2022-12-25T11:08:26.731Z,72.30
2022-12-25T11:09:26.632Z,72.57
2022-12-25T11:10:26.713Z,72.81
2022-12-25T11:11:26.601Z,73.05
2022-12-25T11:12:27.719Z,73.24
2022-12-25T11:13:26.570Z,72.71
2022-12-25T11:14:26.740Z,72.36
2022-12-25T11:15:26.551Z,73.02
2022-12-25T11:16:26.834Z,72.82
2022-12-25T11:17:26.521Z,72.52
2022-12-25T11:18:26.598Z,72.36
2022-12-25T11:19:26.491Z,72.23
2022-12-25T11:20:26.640Z,72.37
2022-12-25T11:21:26.471Z,72.23
2022-12-25T11:22:26.629Z,72.50
2022-12-25T11:23:26.451Z,72.43
2022-12-25T11:25:35.885Z,72.23
2022-12-25T11:26:35.672Z,72.23
2022-12-25T11:27:35.763Z,72.58
2022-12-25T11:28:35.661Z,73.05
2022-12-25T11:29:56.734Z,73.06
2022-12-25T11:30:35.637Z,73.34
2022-12-25T11:31:35.699Z,73.46
2022-12-25T11:32:35.599Z,73.55
2022-12-25T11:33:35.688Z,73.24
2022-12-25T11:34:35.570Z,72.81
2022-12-25T11:35:35.657Z,73.06
2022-12-25T11:36:35.561Z,72.64
2022-12-25T11:37:35.711Z,72.32
2022-12-25T11:38:35.521Z,72.78
2022-12-25T11:39:35.688Z,72.89
2022-12-25T11:40:35.550Z,72.21
2022-12-25T11:41:58.734Z,72.62
2022-12-25T11:42:35.472Z,71.87
2022-12-25T11:43:35.602Z,71.89
2022-12-25T11:44:35.463Z,72.10
2022-12-25T11:45:35.592Z,72.20
2022-12-25T11:46:35.453Z,72.48
2022-12-25T11:47:36.609Z,72.21
2022-12-25T11:48:35.393Z,72.40
2022-12-25T11:49:35.557Z,72.17
2022-12-25T11:50:35.374Z,72.03
2022-12-25T11:51:35.495Z,72.23
2022-12-25T11:52:35.333Z,72.51
2022-12-25T11:53:36.401Z,72.42
2022-12-25T11:54:35.313Z,72.15
2022-12-25T11:55:35.406Z,72.09
2022-12-25T11:56:35.291Z,72.32
2022-12-25T11:57:35.403Z,72.13
2022-12-25T11:58:35.263Z,72.01
2022-12-25T11:59:35.285Z,71.18
2022-12-25T12:00:35.230Z,71.75
2022-12-25T12:01:35.392Z,71.23
2022-12-25T12:02:35.325Z,70.86
2022-12-25T12:03:35.466Z,71.25
2022-12-25T12:04:42.011Z,72.03
2022-12-25T12:05:36.191Z,72.11
2022-12-25T12:06:35.253Z,71.55
2022-12-25T12:07:35.140Z,71.63
2022-12-25T12:08:35.298Z,71.31
2022-12-25T12:09:35.138Z,71.34
2022-12-25T12:10:35.223Z,70.93
2022-12-25T12:11:35.091Z,70.84
2022-12-25T12:12:58.247Z,70.79
2022-12-25T12:13:35.068Z,71.25
2022-12-25T12:14:35.093Z,71.01
2022-12-25T12:15:35.065Z,70.89
2022-12-25T12:16:35.176Z,70.49
2022-12-25T12:17:35.011Z,70.27
2022-12-25T12:18:35.165Z,70.78
2022-12-25T12:19:34.980Z,71.07
2022-12-25T12:20:35.106Z,70.70
2022-12-25T12:21:34.975Z,71.02
2022-12-25T12:22:35.035Z,71.19
2022-12-25T12:23:34.939Z,70.84
2022-12-25T12:24:34.959Z,71.03
2022-12-25T12:25:34.901Z,71.38
2022-12-25T12:26:35.012Z,72.07
2022-12-25T12:27:34.899Z,71.81
2022-12-25T12:28:35.063Z,71.73
2022-12-25T12:29:34.851Z,71.51
2022-12-25T12:30:37.113Z,71.24
2022-12-25T12:31:34.858Z,71.71
2022-12-25T12:32:34.927Z,71.73
2022-12-25T12:33:34.822Z,71.68
2022-12-25T12:34:35.899Z,72.06
2022-12-25T12:35:34.774Z,71.93
2022-12-25T12:36:36.456Z,72.26
2022-12-25T12:37:34.757Z,72.18
2022-12-25T12:38:34.925Z,72.11
2022-12-25T12:39:34.747Z,72.42
2022-12-25T12:40:55.844Z,72.44
2022-12-25T12:41:34.692Z,72.16
2022-12-25T12:42:34.684Z,72.44
2022-12-25T12:43:34.881Z,72.64
2022-12-25T12:44:34.674Z,72.63
2022-12-25T12:45:35.806Z,72.75
2022-12-25T12:46:34.675Z,72.79
2022-12-25T12:47:34.722Z,72.92
2022-12-25T12:48:34.594Z,72.91
2022-12-25T12:49:34.676Z,72.71
2022-12-25T12:50:34.571Z,72.55
2022-12-25T12:51:34.771Z,72.45
2022-12-25T12:52:34.563Z,72.72
2022-12-25T12:53:34.730Z,72.49
2022-12-25T12:54:34.526Z,72.48